Terminal Aerodrome Forecast
Issued by NWS Mt. Holly, NJ

Home | Current Version | Previous Version | Text Only | Print | Product List | Glossary On
Versions: 1 2 3 4 5 6 7 8 9 10 11 12 13 14 15 16 17 18
000
FTUS41 KPHI 301126
TAFACY
TAF
KACY 301126Z 3012/3112 20008KT P6SM SCT015 BKN100
     FM301400 21010KT P6SM SCT045 BKN100
      TEMPO 3020/3024 4SM -TSRA BR OVC025CB
     FM310600 27005KT P6SM OVC250
     FM311100 31006KT P6SM SKC=

USA.gov is the U.S. government's official web portal to all federal, state and local government web resources and services.